Imperial County Airport Imperial US
ICAO: KIPL
IATA: IPL
Category: Medium
Scheduled Services: No

Elevation: -54 ft
TransAlt. 18000 ft.

Airport Communications:
ASOS:132.175
LOS ANGELES CNTR:128.6
SAN DIEGO RDO:122.5
CTAF/UNICOM:122.7

KIPL Zoom In..

Runways:

(A) RW 08 length 4501 ft width 75 ft
---- / hdg 76

(B) RW 14 length 5308 ft width 100 ft
---- / hdg 139

(C) RW 26 length 4501 ft width 75 ft
---- / hdg 256

(D) RW 32 length 5308 ft width 100 ft
---- / hdg 319

Location; KIPL
Day. 29 / Time. 08.53 Zulu
* Altimeter: 29.76
* Temperature: 24° c. 75.2°f.
* Wind from: 100° Speed 06 kn.
Dewpoint: 13° c.
Visibility: 10 Statute Miles.
Clouds: Clear (automated report).

KIPL 290853Z AUTO 10006KT 10SM CLR 24/13 A2976 RMK AO2 SLP078 T02440133 55001


Wind From 100°
Speed 06 kn.

 
 
jpsmedia worldairports.se 2020   terms of use